Time;durP1;ratioP1;P1;durP2;ratioP2;P2;SDS_P1;SDS_P2;PMS_P1;PMS_P2;Temp;Humidity;BMP_temperature;BMP_pressure;BME280_temperature;BME280_humidity;BME280_pressure;Samples;Min_cycle;Max_cycle;Signal;HPM_P1;HPM_P2
2022/06/29 00:00:08;;;;;;;1.20;1.10;;;15.90;99.90;;;;;;5102980;28;20198;-44
2022/06/29 00:02:34;;;;;;;3.40;1.10;;;15.90;99.90;;;;;;5103235;28;20182;-44
2022/06/29 00:05:01;;;;;;;2.13;1.40;;;15.90;99.90;;;;;;5103102;28;20289;-43
2022/06/29 00:07:26;;;;;;;1.80;1.10;;;15.80;99.90;;;;;;5102321;28;20185;-44
2022/06/29 00:09:52;;;;;;;1.50;1.20;;;15.80;99.90;;;;;;5102767;28;20207;-44
2022/06/29 00:12:17;;;;;;;4.23;1.10;;;15.70;99.90;;;;;;5102817;28;20175;-44
2022/06/29 00:14:43;;;;;;;1.70;1.10;;;15.70;99.90;;;;;;5102685;28;20236;-43
2022/06/29 00:17:12;;;;;;;1.60;1.20;;;15.70;99.90;;;;;;5102234;28;20191;-44
2022/06/29 00:19:39;;;;;;;1.90;1.00;;;15.60;99.90;;;;;;5103413;28;20286;-43
2022/06/29 00:22:06;;;;;;;2.93;1.20;;;15.60;99.90;;;;;;5105629;28;20187;-44
2022/06/29 00:24:32;;;;;;;2.63;0.90;;;15.60;99.90;;;;;;5105810;28;20187;-43
2022/06/29 00:26:58;;;;;;;2.67;1.20;;;15.60;99.90;;;;;;5105320;28;20293;-44
2022/06/29 00:29:24;;;;;;;2.30;1.47;;;15.50;99.90;;;;;;5103293;28;20209;-44
2022/06/29 00:31:50;;;;;;;1.43;0.90;;;15.60;99.90;;;;;;5100185;28;20178;-43
2022/06/29 00:34:15;;;;;;;2.70;1.30;;;15.50;99.90;;;;;;5100077;28;20179;-45
2022/06/29 00:36:41;;;;;;;1.90;1.33;;;15.50;99.90;;;;;;5100111;28;20175;-43
2022/06/29 00:39:07;;;;;;;2.63;1.40;;;15.50;99.90;;;;;;5099725;28;20187;-43
2022/06/29 00:41:41;;;;;;;4.13;1.30;;;15.50;99.90;;;;;;5099920;28;20204;-42
2022/06/29 00:44:10;;;;;;;3.43;1.30;;;15.50;99.90;;;;;;5100219;28;20641;-43
2022/06/29 00:46:40;;;;;;;2.60;1.37;;;15.40;99.90;;;;;;5100231;28;20203;-44
2022/06/29 00:49:05;;;;;;;1.17;1.03;;;15.40;99.90;;;;;;5098695;28;20669;-44
2022/06/29 00:51:35;;;;;;;3.23;1.10;;;15.30;99.90;;;;;;5099380;28;20206;-43
2022/06/29 00:54:04;;;;;;;1.00;0.90;;;15.20;99.90;;;;;;5099423;28;20191;-43
2022/06/29 00:56:32;;;;;;;6.23;1.10;;;15.20;99.90;;;;;;5099460;28;20182;-43
2022/06/29 00:59:02;;;;;;;2.53;1.27;;;15.20;99.90;;;;;;5099285;28;20218;-44
2022/06/29 01:01:29;;;;;;;2.63;1.30;;;15.10;99.90;;;;;;5099661;28;20622;-43
2022/06/29 01:03:54;;;;;;;1.73;1.13;;;15.00;99.90;;;;;;5097821;28;20194;-44
2022/06/29 01:06:20;;;;;;;1.00;0.90;;;15.00;99.90;;;;;;5098733;28;20187;-43
2022/06/29 01:08:46;;;;;;;1.30;1.20;;;14.90;99.90;;;;;;5098061;28;20744;-44
2022/06/29 01:11:11;;;;;;;1.83;1.13;;;14.90;99.90;;;;;;5097827;28;20535;-45
2022/06/29 01:13:42;;;;;;;2.13;1.20;;;14.90;99.90;;;;;;5098097;28;20537;-43
2022/06/29 01:16:07;;;;;;;2.30;1.40;;;14.90;99.90;;;;;;5098501;28;20190;-44
2022/06/29 01:18:33;;;;;;;3.10;1.10;;;14.80;99.90;;;;;;5098159;28;20581;-44
2022/06/29 01:21:08;;;;;;;2.50;1.47;;;14.90;99.90;;;;;;5097933;28;20191;-44
2022/06/29 01:23:34;;;;;;;3.00;1.40;;;14.80;99.90;;;;;;5098285;28;20166;-44
2022/06/29 01:26:04;;;;;;;2.93;1.33;;;14.90;99.90;;;;;;5098512;28;20761;-43
2022/06/29 01:28:30;;;;;;;3.33;1.40;;;14.80;99.90;;;;;;5097857;28;20183;-44
2022/06/29 01:30:57;;;;;;;2.23;1.30;;;14.90;99.90;;;;;;5097602;28;20282;-44
2022/06/29 01:33:22;;;;;;;2.00;1.33;;;14.90;99.90;;;;;;5098137;28;20179;-43
2022/06/29 01:35:48;;;;;;;3.60;1.43;;;14.80;99.90;;;;;;5098559;28;20254;-43
2022/06/29 01:38:13;;;;;;;1.60;1.10;;;14.80;99.90;;;;;;5097437;28;20232;-45
2022/06/29 01:40:39;;;;;;;1.40;1.30;;;14.80;99.90;;;;;;5098559;28;20207;-44
2022/06/29 01:43:05;;;;;;;4.13;1.40;;;14.80;99.90;;;;;;5098241;28;20183;-43
2022/06/29 01:45:30;;;;;;;3.83;1.50;;;14.70;99.90;;;;;;5097430;28;20286;-44
2022/06/29 01:47:56;;;;;;;2.20;1.40;;;14.70;99.90;;;;;;5099148;28;20183;-44
2022/06/29 01:50:22;;;;;;;2.87;1.33;;;14.60;99.90;;;;;;5098356;28;20300;-43
2022/06/29 01:52:47;;;;;;;3.27;1.30;;;14.60;99.90;;;;;;5098360;28;20183;-44
2022/06/29 01:55:13;;;;;;;2.50;1.43;;;14.60;99.90;;;;;;5098348;28;20229;-45
2022/06/29 01:57:39;;;;;;;2.70;1.40;;;14.50;99.90;;;;;;5097936;28;20658;-43
2022/06/29 02:00:05;;;;;;;1.30;1.20;;;14.50;99.90;;;;;;5097775;28;20190;-44
2022/06/29 02:02:30;;;;;;;1.27;0.97;;;14.50;99.90;;;;;;5097693;28;20190;-42
2022/06/29 02:04:56;;;;;;;3.23;1.43;;;14.40;99.90;;;;;;5098055;28;20270;-43
2022/06/29 02:07:21;;;;;;;2.23;1.20;;;14.40;99.90;;;;;;5097833;28;20197;-42
2022/06/29 02:09:47;;;;;;;1.53;1.00;;;14.40;99.90;;;;;;5097876;28;20709;-43
2022/06/29 02:12:13;;;;;;;1.70;1.10;;;14.40;99.90;;;;;;5099037;28;20203;-43
2022/06/29 02:14:38;;;;;;;1.53;1.20;;;14.30;99.90;;;;;;5098369;28;20251;-43
2022/06/29 02:17:04;;;;;;;1.10;1.00;;;14.30;99.90;;;;;;5097372;28;20189;-43
2022/06/29 02:19:29;;;;;;;4.10;1.27;;;14.30;99.90;;;;;;5098428;28;20372;-45
2022/06/29 02:21:55;;;;;;;7.73;1.40;;;14.30;99.90;;;;;;5098235;28;20183;-44
2022/06/29 02:24:20;;;;;;;1.57;1.10;;;14.30;99.90;;;;;;5098446;28;20177;-42
2022/06/29 02:26:46;;;;;;;2.07;1.50;;;14.20;99.90;;;;;;5098681;28;20175;-44
2022/06/29 02:29:12;;;;;;;2.60;1.50;;;14.20;99.90;;;;;;5098439;28;20199;-44
2022/06/29 02:37:05;;;;;;;6.57;1.50;;;14.10;99.90;;;;;;5098117;28;20163;-44
2022/06/29 02:39:31;;;;;;;3.27;1.73;;;14.00;99.90;;;;;;5098229;28;20585;-44
2022/06/29 02:41:56;;;;;;;3.67;1.60;;;14.00;99.90;;;;;;5099157;28;20186;-44
2022/06/29 02:44:22;;;;;;;4.80;1.53;;;14.00;99.90;;;;;;5098652;28;20175;-42
2022/06/29 02:46:47;;;;;;;5.07;1.33;;;13.90;99.90;;;;;;5096707;28;20179;-44
2022/06/29 02:49:13;;;;;;;2.37;1.43;;;14.00;99.90;;;;;;5097738;28;20218;-45
2022/06/29 02:51:38;;;;;;;3.00;1.53;;;13.90;99.90;;;;;;5098318;28;20290;-44
2022/06/29 02:54:04;;;;;;;3.17;1.57;;;13.90;99.90;;;;;;5097979;28;20179;-44
2022/06/29 02:56:30;;;;;;;3.17;1.40;;;13.90;99.90;;;;;;5097732;28;20178;-44
2022/06/29 02:58:55;;;;;;;6.80;1.57;;;13.80;99.90;;;;;;5098314;28;20650;-43
2022/06/29 03:01:21;;;;;;;1.77;1.40;;;13.80;99.90;;;;;;5098193;28;20225;-44
2022/06/29 03:03:46;;;;;;;4.23;1.50;;;13.80;99.90;;;;;;5098623;28;20179;-43
2022/06/29 03:06:12;;;;;;;3.40;1.40;;;13.70;99.90;;;;;;5098118;28;20204;-44
2022/06/29 03:08:37;;;;;;;4.53;1.57;;;13.80;99.90;;;;;;5097441;28;20681;-44
2022/06/29 03:11:03;;;;;;;4.40;1.30;;;13.70;99.90;;;;;;5097415;28;20230;-44
2022/06/29 03:13:29;;;;;;;3.27;1.70;;;13.70;99.90;;;;;;5098140;28;20183;-43
2022/06/29 03:15:54;;;;;;;3.13;1.53;;;13.70;99.90;;;;;;5097641;28;20257;-44
2022/06/29 03:18:20;;;;;;;2.30;1.60;;;13.70;99.90;;;;;;5097024;28;20584;-44
2022/06/29 03:20:45;;;;;;;2.80;1.53;;;13.60;99.90;;;;;;5097210;28;20175;-43
2022/06/29 03:23:11;;;;;;;4.07;2.10;;;13.60;99.90;;;;;;5097452;28;20179;-44
2022/06/29 03:25:36;;;;;;;2.10;1.90;;;13.60;99.90;;;;;;5096950;28;20638;-44
2022/06/29 03:28:02;;;;;;;2.90;1.70;;;13.60;99.90;;;;;;5099002;28;20541;-44
2022/06/29 03:30:28;;;;;;;3.80;2.10;;;13.60;99.90;;;;;;5101214;28;20322;-44
2022/06/29 03:32:53;;;;;;;7.60;2.07;;;13.60;99.90;;;;;;5100354;28;20236;-44
2022/06/29 03:35:19;;;;;;;1.83;1.50;;;13.60;99.90;;;;;;5100688;28;20167;-44
2022/06/29 03:37:44;;;;;;;3.70;1.70;;;13.50;99.90;;;;;;5100236;28;20216;-44
2022/06/29 03:40:10;;;;;;;7.10;2.10;;;13.50;99.90;;;;;;5100462;28;20226;-43
2022/06/29 03:42:36;;;;;;;2.40;2.10;;;13.50;99.90;;;;;;5100627;28;20175;-43
2022/06/29 03:45:02;;;;;;;5.37;1.90;;;13.50;99.90;;;;;;5099110;28;20186;-45
2022/06/29 03:47:27;;;;;;;2.20;1.70;;;13.50;99.90;;;;;;5100472;28;20171;-44
2022/06/29 03:49:53;;;;;;;6.77;2.10;;;13.40;99.90;;;;;;5099819;28;20227;-45
2022/06/29 03:52:19;;;;;;;3.03;1.60;;;13.50;99.90;;;;;;5100402;28;20213;-44
2022/06/29 03:54:44;;;;;;;2.77;1.70;;;13.40;99.90;;;;;;5100239;28;20171;-44
2022/06/29 03:57:10;;;;;;;4.10;1.80;;;13.40;99.90;;;;;;5100716;28;20205;-43
2022/06/29 03:59:36;;;;;;;5.13;1.83;;;13.50;99.90;;;;;;5100292;28;20191;-43
2022/06/29 04:02:02;;;;;;;2.97;1.80;;;13.50;99.90;;;;;;5099593;28;20699;-44
2022/06/29 04:04:27;;;;;;;2.57;1.90;;;13.50;99.90;;;;;;5099282;28;20175;-45
2022/06/29 04:06:53;;;;;;;5.27;2.23;;;13.50;99.90;;;;;;5099709;28;20174;-43
2022/06/29 04:09:18;;;;;;;3.10;2.03;;;13.50;99.90;;;;;;5099151;28;20211;-43
2022/06/29 04:11:52;;;;;;;3.37;1.90;;;13.60;99.90;;;;;;5099543;28;20226;-44
2022/06/29 04:14:24;;;;;;;6.60;2.20;;;13.60;99.90;;;;;;5098533;28;20646;-44
2022/06/29 04:16:54;;;;;;;3.30;2.10;;;13.60;99.90;;;;;;5099005;28;20171;-43
2022/06/29 04:19:20;;;;;;;3.17;2.30;;;13.60;99.90;;;;;;5098711;28;20207;-43
2022/06/29 04:21:46;;;;;;;4.93;2.30;;;13.60;99.90;;;;;;5098270;28;20691;-44
2022/06/29 04:24:12;;;;;;;3.80;2.07;;;13.70;99.90;;;;;;5098106;28;20169;-42
2022/06/29 04:26:38;;;;;;;2.17;1.97;;;13.80;99.90;;;;;;5098686;28;20182;-43
2022/06/29 04:29:04;;;;;;;5.23;2.23;;;13.80;99.90;;;;;;5098506;28;20294;-44
2022/06/29 04:31:29;;;;;;;6.60;2.27;;;13.70;99.90;;;;;;5100732;28;20195;-42
2022/06/29 04:33:55;;;;;;;3.70;2.10;;;13.80;99.90;;;;;;5098635;28;20169;-42
2022/06/29 04:36:20;;;;;;;4.90;2.00;;;13.90;99.90;;;;;;5098787;28;20183;-44
2022/06/29 04:38:46;;;;;;;2.73;1.87;;;13.90;99.90;;;;;;5097790;28;20226;-42
2022/06/29 04:41:12;;;;;;;5.10;2.00;;;14.00;99.90;;;;;;5099853;28;20735;-44
2022/06/29 04:43:38;;;;;;;4.80;1.83;;;14.10;99.90;;;;;;5100021;28;20183;-44
2022/06/29 04:46:25;;;;;;;5.60;2.13;;;14.10;99.90;;;;;;5098313;28;20554;-43
2022/06/29 04:49:01;;;;;;;6.17;2.13;;;14.20;99.90;;;;;;5098332;28;20207;-44
2022/06/29 04:51:30;;;;;;;2.93;1.93;;;14.30;99.90;;;;;;5098744;28;20226;-43
2022/06/29 04:53:56;;;;;;;2.27;2.07;;;14.50;99.90;;;;;;5099172;28;20254;-45
2022/06/29 04:56:27;;;;;;;4.73;2.40;;;14.60;99.90;;;;;;5098528;28;20181;-43
2022/06/29 04:58:54;;;;;;;4.40;2.27;;;14.80;99.90;;;;;;5098251;28;20246;-44
2022/06/29 05:01:21;;;;;;;4.03;2.17;;;14.90;99.90;;;;;;5098545;28;20189;-44
2022/06/29 05:03:47;;;;;;;4.83;2.43;;;15.00;99.90;;;;;;5098676;28;20189;-44
2022/06/29 05:06:13;;;;;;;5.70;2.47;;;15.10;99.90;;;;;;5098048;28;20210;-44
2022/06/29 05:08:38;;;;;;;4.27;2.40;;;15.20;99.90;;;;;;5099712;28;20214;-43
2022/06/29 05:11:04;;;;;;;2.87;2.33;;;15.30;99.90;;;;;;5101031;28;20203;-42
2022/06/29 05:13:30;;;;;;;2.80;2.30;;;15.40;99.90;;;;;;5096066;28;20630;-38
2022/06/29 05:15:55;;;;;;;3.87;2.67;;;15.50;99.90;;;;;;5095090;28;20175;-40
2022/06/29 05:18:21;;;;;;;11.53;3.10;;;15.60;99.90;;;;;;5095211;28;20263;-39
2022/06/29 05:20:47;;;;;;;4.30;2.50;;;15.60;99.90;;;;;;5094938;28;20221;-40
2022/06/29 05:23:13;;;;;;;8.17;2.93;;;15.80;99.90;;;;;;5095182;28;20233;-38
2022/06/29 05:25:39;;;;;;;7.23;2.60;;;15.90;99.90;;;;;;5095173;28;20637;-39
2022/06/29 05:28:05;;;;;;;7.57;3.37;;;16.00;99.90;;;;;;5094903;28;20843;-40
2022/06/29 05:30:31;;;;;;;6.73;2.90;;;16.10;99.90;;;;;;5094647;28;20664;-41
2022/06/29 05:32:57;;;;;;;7.80;3.10;;;16.10;99.90;;;;;;5094918;28;20182;-40
2022/06/29 05:35:22;;;;;;;4.50;2.50;;;16.20;99.90;;;;;;5094896;28;20183;-40
2022/06/29 05:37:48;;;;;;;8.33;2.73;;;16.30;99.90;;;;;;5094625;28;20183;-40
2022/06/29 05:40:14;;;;;;;8.00;3.00;;;16.50;99.90;;;;;;5096358;28;20277;-41
2022/06/29 05:42:39;;;;;;;8.40;2.67;;;16.70;99.90;;;;;;5093300;28;20286;-41
2022/06/29 05:45:06;;;;;;;8.73;2.57;;;16.80;99.90;;;;;;5094443;28;20182;-39
2022/06/29 05:47:31;;;;;;;9.30;2.83;;;16.90;99.90;;;;;;5094399;28;20187;-38
2022/06/29 05:49:57;;;;;;;8.27;2.80;;;17.00;99.90;;;;;;5094018;28;20215;-40
2022/06/29 05:52:24;;;;;;;4.83;2.50;;;17.20;99.90;;;;;;5094332;28;20182;-39
2022/06/29 05:54:49;;;;;;;8.93;2.47;;;17.30;99.90;;;;;;5094604;28;20179;-40
2022/06/29 05:57:15;;;;;;;3.70;2.30;;;17.40;99.90;;;;;;5094328;28;20542;-41
2022/06/29 05:59:41;;;;;;;5.97;2.47;;;17.50;99.90;;;;;;5094432;28;20202;-40
2022/06/29 06:02:07;;;;;;;4.23;2.77;;;17.60;99.90;;;;;;5094243;28;20257;-40
2022/06/29 06:04:32;;;;;;;4.33;2.80;;;17.80;99.90;;;;;;5094385;28;20185;-40
2022/06/29 06:06:58;;;;;;;4.73;3.20;;;17.80;99.90;;;;;;5094470;28;20202;-39
2022/06/29 06:09:27;;;;;;;13.07;3.20;;;17.90;99.90;;;;;;5094027;28;20697;-38
2022/06/29 06:11:54;;;;;;;9.77;3.10;;;18.00;99.90;;;;;;5094298;28;20545;-41
2022/06/29 06:14:20;;;;;;;7.97;3.17;;;18.00;99.90;;;;;;5094006;28;20171;-40
2022/06/29 06:16:45;;;;;;;9.20;3.50;;;18.10;99.90;;;;;;5093922;28;20186;-41
2022/06/29 06:19:11;;;;;;;7.37;3.27;;;18.10;99.90;;;;;;5094130;28;20554;-39
2022/06/29 06:21:37;;;;;;;5.50;2.80;;;18.30;99.90;;;;;;5095171;28;20183;-39
2022/06/29 06:24:03;;;;;;;6.57;2.63;;;18.30;99.90;;;;;;5094893;28;20182;-40
2022/06/29 06:26:29;;;;;;;10.80;3.47;;;18.40;99.90;;;;;;5094308;28;20202;-40
2022/06/29 06:28:55;;;;;;;8.77;2.33;;;18.60;99.90;;;;;;5093807;28;20198;-39
2022/06/29 06:31:21;;;;;;;5.50;2.80;;;18.70;99.90;;;;;;5093662;28;20205;-41
2022/06/29 06:33:46;;;;;;;7.90;2.60;;;18.80;99.90;;;;;;5094588;28;20171;-39
2022/06/29 06:36:12;;;;;;;12.00;3.03;;;18.90;99.90;;;;;;5093670;28;20634;-39
2022/06/29 06:38:37;;;;;;;4.23;2.30;;;19.10;99.90;;;;;;5094266;28;20271;-40
2022/06/29 06:43:48;;;;;;;7.03;2.63;;;19.40;99.90;;;;;;5093714;28;20166;-42
2022/06/29 06:46:14;;;;;;;12.03;2.80;;;19.60;99.90;;;;;;5093574;28;20244;-40
2022/06/29 06:48:39;;;;;;;4.37;3.13;;;19.70;99.90;;;;;;5093447;28;20670;-40
2022/06/29 06:51:05;;;;;;;4.37;2.77;;;19.80;99.90;;;;;;5093373;28;20206;-40
2022/06/29 06:53:31;;;;;;;8.90;3.07;;;19.90;99.90;;;;;;5093712;28;20200;-40
2022/06/29 06:55:57;;;;;;;11.10;3.00;;;19.90;99.90;;;;;;5093403;28;20272;-39
2022/06/29 06:58:23;;;;;;;4.40;2.80;;;19.90;99.90;;;;;;5093317;28;20543;-39
2022/06/29 07:00:48;;;;;;;7.73;2.90;;;19.90;99.90;;;;;;5093429;28;20174;-40
2022/06/29 07:03:14;;;;;;;4.27;2.63;;;19.90;99.90;;;;;;5096070;28;20183;-40
2022/06/29 07:05:39;;;;;;;5.70;2.40;;;19.90;99.90;;;;;;5097635;28;20202;-40
2022/06/29 07:08:05;;;;;;;4.87;2.33;;;19.90;99.90;;;;;;5097465;28;20194;-39
2022/06/29 07:10:31;;;;;;;4.23;2.10;;;20.00;99.90;;;;;;5097620;28;20748;-41
2022/06/29 07:12:57;;;;;;;5.30;1.97;;;20.00;99.90;;;;;;5097723;28;20530;-40
2022/06/29 07:15:22;;;;;;;7.67;1.80;;;20.10;99.90;;;;;;5097377;28;20581;-41
2022/06/29 07:17:48;;;;;;;4.30;1.70;;;20.10;99.90;;;;;;5096150;28;20206;-41
2022/06/29 07:20:13;;;;;;;2.70;1.70;;;20.20;99.90;;;;;;5097211;28;20669;-41
2022/06/29 07:22:39;;;;;;;3.03;2.13;;;20.20;99.90;;;;;;5097370;28;20179;-40
2022/06/29 07:25:05;;;;;;;7.90;1.70;;;20.30;99.90;;;;;;5097488;28;20200;-40
2022/06/29 07:27:30;;;;;;;5.30;2.10;;;20.40;99.90;;;;;;5097462;28;20195;-40
2022/06/29 07:29:56;;;;;;;3.43;1.60;;;20.40;99.90;;;;;;5097001;28;20748;-41
2022/06/29 07:32:22;;;;;;;7.30;2.20;;;20.60;99.90;;;;;;5097095;28;20227;-40
2022/06/29 07:34:47;;;;;;;3.67;1.67;;;20.70;99.90;;;;;;5097039;28;20646;-39
2022/06/29 07:37:13;;;;;;;3.60;1.60;;;20.70;99.90;;;;;;5097249;28;20220;-40
2022/06/29 07:39:39;;;;;;;4.80;1.47;;;20.80;99.90;;;;;;5096913;28;20199;-40
2022/06/29 07:42:05;;;;;;;5.50;1.73;;;20.80;99.90;;;;;;5097409;28;20253;-42
2022/06/29 07:44:31;;;;;;;1.57;1.30;;;20.90;99.90;;;;;;5097296;28;20262;-41
2022/06/29 07:46:56;;;;;;;8.20;2.03;;;21.00;99.90;;;;;;5098494;28;20186;-40
2022/06/29 07:49:23;;;;;;;1.97;1.40;;;21.00;99.90;;;;;;5099099;28;20191;-41
2022/06/29 07:51:49;;;;;;;3.67;1.60;;;21.00;99.90;;;;;;5098249;28;20294;-41
2022/06/29 07:54:15;;;;;;;4.53;2.03;;;21.00;99.90;;;;;;5096306;28;20202;-40
2022/06/29 07:56:41;;;;;;;3.77;1.57;;;21.10;99.90;;;;;;5097516;28;20203;-40
2022/06/29 07:59:07;;;;;;;11.90;2.23;;;21.10;99.90;;;;;;5097310;28;20706;-39
2022/06/29 08:01:32;;;;;;;4.77;1.73;;;21.20;99.90;;;;;;5097137;28;20677;-40
2022/06/29 08:03:58;;;;;;;3.93;1.30;;;21.30;99.90;;;;;;5096608;28;20649;-39
2022/06/29 08:06:24;;;;;;;2.13;1.40;;;21.20;99.90;;;;;;5096455;28;20666;-39
2022/06/29 08:08:51;;;;;;;5.10;1.40;;;21.30;99.90;;;;;;5096482;28;20234;-39
2022/06/29 08:11:17;;;;;;;3.13;1.53;;;21.30;99.90;;;;;;5096263;28;20214;-40
2022/06/29 08:13:42;;;;;;;3.33;1.20;;;21.40;99.90;;;;;;5095072;28;20189;-39
2022/06/29 08:16:08;;;;;;;3.77;1.50;;;21.40;99.90;;;;;;5096325;28;20542;-40
2022/06/29 08:18:35;;;;;;;2.97;1.47;;;21.50;99.90;;;;;;5096138;28;20199;-40
2022/06/29 08:21:02;;;;;;;2.33;1.20;;;21.50;99.90;;;;;;5096436;28;20187;-40
2022/06/29 08:23:28;;;;;;;3.40;1.40;;;21.60;99.90;;;;;;5096077;28;20257;-40
2022/06/29 08:25:54;;;;;;;6.20;1.60;;;21.60;99.90;;;;;;5096328;28;20320;-39
2022/06/29 08:28:19;;;;;;;2.27;1.70;;;21.60;99.90;;;;;;5096027;28;20628;-40
2022/06/29 08:30:46;;;;;;;3.83;1.60;;;21.70;99.90;;;;;;5095923;28;20289;-40
2022/06/29 08:33:12;;;;;;;3.07;1.30;;;21.80;99.90;;;;;;5096206;28;20179;-40
2022/06/29 08:35:37;;;;;;;4.77;1.43;;;21.80;99.90;;;;;;5096225;28;20174;-39
2022/06/29 08:38:03;;;;;;;1.83;1.27;;;21.80;99.90;;;;;;5095870;28;20681;-41
2022/06/29 08:40:42;;;;;;;2.30;1.40;;;21.90;99.90;;;;;;5095795;28;20210;-40
2022/06/29 08:43:10;;;;;;;2.37;1.47;;;21.90;99.90;;;;;;5095763;28;20206;-40
2022/06/29 08:45:40;;;;;;;1.73;1.30;;;21.90;99.90;;;;;;5095719;28;20179;-41
2022/06/29 08:48:06;;;;;;;5.03;1.50;;;22.00;99.90;;;;;;5095694;28;20590;-41
2022/06/29 08:50:32;;;;;;;1.73;1.23;;;22.00;99.90;;;;;;5095503;28;20210;-39
2022/06/29 08:53:00;;;;;;;4.97;1.20;;;22.10;99.90;;;;;;5095582;28;20571;-42
2022/06/29 08:55:26;;;;;;;1.53;1.40;;;22.20;99.90;;;;;;5095659;28;20171;-41
2022/06/29 08:57:52;;;;;;;2.03;1.50;;;22.30;99.90;;;;;;5095701;28;20183;-41
2022/06/29 09:00:17;;;;;;;4.33;1.40;;;22.20;99.90;;;;;;5095713;28;20321;-41
2022/06/29 09:02:45;;;;;;;6.23;1.53;;;22.40;99.90;;;;;;5095652;28;20273;-40
2022/06/29 09:05:11;;;;;;;2.17;1.20;;;22.50;99.90;;;;;;5095568;28;20309;-40
2022/06/29 09:07:36;;;;;;;3.43;1.20;;;22.60;99.90;;;;;;5095186;28;20273;-40
2022/06/29 09:10:11;;;;;;;3.77;1.37;;;22.60;99.90;;;;;;5095081;28;20681;-41
2022/06/29 09:12:38;;;;;;;2.03;1.33;;;22.80;99.90;;;;;;5095489;28;20599;-41
2022/06/29 09:15:08;;;;;;;1.77;1.30;;;22.80;99.90;;;;;;5095096;28;20643;-40
2022/06/29 09:17:35;;;;;;;5.03;1.50;;;23.00;99.90;;;;;;5095388;28;20163;-41
2022/06/29 09:20:01;;;;;;;2.00;1.40;;;23.00;99.90;;;;;;5095813;28;20198;-41
2022/06/29 09:22:27;;;;;;;2.60;1.37;;;23.10;99.90;;;;;;5095317;28;20181;-41
2022/06/29 09:24:53;;;;;;;3.90;1.30;;;23.20;99.90;;;;;;5093202;28;20552;-40
2022/06/29 09:27:18;;;;;;;3.70;1.30;;;23.30;99.90;;;;;;5095405;28;20182;-42
2022/06/29 09:29:45;;;;;;;2.50;1.47;;;23.50;99.90;;;;;;5095112;28;20202;-41
2022/06/29 09:32:12;;;;;;;5.17;1.30;;;23.60;99.90;;;;;;5097632;28;20179;-45
2022/06/29 09:34:50;;;;;;;2.33;1.33;;;23.90;99.90;;;;;;5097632;28;20178;-44
2022/06/29 09:37:18;;;;;;;3.20;1.50;;;24.00;99.90;;;;;;5098120;28;20167;-45
2022/06/29 09:39:52;;;;;;;1.47;1.37;;;24.20;99.90;;;;;;5097139;28;20244;-45
2022/06/29 09:42:19;;;;;;;1.93;1.20;;;24.40;99.90;;;;;;5096562;28;20170;-45
2022/06/29 09:44:46;;;;;;;3.63;1.23;;;24.70;99.90;;;;;;5096214;28;20167;-43
2022/06/29 09:47:16;;;;;;;2.17;1.40;;;24.90;99.90;;;;;;5096269;28;20175;-46
2022/06/29 09:49:44;;;;;;;2.23;1.27;;;25.20;99.90;;;;;;5096965;28;20191;-46
2022/06/29 09:52:10;;;;;;;2.00;1.03;;;25.40;99.90;;;;;;5098208;28;20183;-44
2022/06/29 09:54:52;;;;;;;3.13;1.40;;;25.60;99.90;;;;;;5097166;28;20202;-44
2022/06/29 09:57:20;;;;;;;5.03;1.30;;;25.90;99.90;;;;;;5098413;28;20163;-46
2022/06/29 10:02:37;;;;;;;2.23;1.20;;;26.10;99.90;;;;;;5098124;28;20645;-44
2022/06/29 10:05:07;;;;;;;5.73;1.37;;;26.20;99.90;;;;;;5097169;28;20255;-44
2022/06/29 10:07:34;;;;;;;1.60;1.30;;;26.30;99.90;;;;;;5096401;28;20683;-44
2022/06/29 10:10:01;;;;;;;3.33;1.27;;;26.40;99.90;;;;;;5095268;28;20203;-45
2022/06/29 10:15:57;;;;;;;7.00;1.30;;;26.40;99.90;;;;;;5095318;28;20212;-45
2022/06/29 10:18:42;;;;;;;3.00;1.20;;;26.40;99.90;;;;;;5095032;28;20174;-45
2022/06/29 10:21:14;;;;;;;1.97;1.13;;;26.50;99.90;;;;;;5094989;28;20159;-44
2022/06/29 10:23:53;;;;;;;1.70;1.20;;;26.50;99.90;;;;;;5095703;28;20269;-45
2022/06/29 10:26:37;;;;;;;4.57;1.47;;;26.40;99.90;;;;;;5095510;28;20174;-44
2022/06/29 10:29:05;;;;;;;1.63;1.30;;;26.50;99.90;;;;;;5095660;28;20243;-44
2022/06/29 10:31:49;;;;;;;1.90;1.40;;;26.60;99.90;;;;;;5095476;28;20683;-45
2022/06/29 10:34:34;;;;;;;4.87;1.40;;;26.70;99.90;;;;;;5095766;28;20186;-45
2022/06/29 10:37:04;;;;;;;7.53;1.47;;;26.80;99.90;;;;;;5094460;28;20220;-44
2022/06/29 10:39:45;;;;;;;1.90;1.10;;;26.70;99.90;;;;;;5095220;28;20201;-44
2022/06/29 10:45:12;;;;;;;4.10;1.50;;;26.80;99.90;;;;;;5095102;28;20236;-43
2022/06/29 10:47:39;;;;;;;2.27;1.17;;;26.80;99.90;;;;;;5095009;28;20186;-46
2022/06/29 10:50:21;;;;;;;2.27;1.27;;;26.80;99.90;;;;;;5094329;28;20198;-43
2022/06/29 10:52:48;;;;;;;2.67;1.50;;;26.90;99.90;;;;;;5094452;28;20658;-45
2022/06/29 10:55:15;;;;;;;4.47;1.17;;;26.90;99.90;;;;;;5093264;28;20699;-45
2022/06/29 10:57:42;;;;;;;4.47;1.77;;;26.90;99.90;;;;;;5094672;28;20175;-45
2022/06/29 11:00:14;;;;;;;4.77;1.20;;;27.00;99.90;;;;;;5094428;28;20190;-44
2022/06/29 11:02:41;;;;;;;3.37;1.37;;;27.10;99.90;;;;;;5094387;28;20228;-45
2022/06/29 11:05:08;;;;;;;2.33;1.20;;;27.30;99.90;;;;;;5093907;28;20174;-45
2022/06/29 11:13:02;;;;;;;1.63;1.20;;;27.50;99.90;;;;;;5093759;28;20165;-44
2022/06/29 11:15:41;;;;;;;2.47;1.20;;;27.60;99.90;;;;;;5093498;28;20250;-45
2022/06/29 11:18:08;;;;;;;4.30;1.20;;;27.60;99.90;;;;;;5093454;28;20179;-46
2022/06/29 11:20:34;;;;;;;4.00;1.33;;;27.60;99.90;;;;;;5093558;28;20198;-44
2022/06/29 11:22:59;;;;;;;1.40;1.10;;;27.60;99.90;;;;;;5093436;28;20531;-45
2022/06/29 11:25:26;;;;;;;3.97;1.40;;;27.60;99.90;;;;;;5094197;28;20209;-45
2022/06/29 11:27:52;;;;;;;7.63;1.30;;;27.60;99.90;;;;;;5093747;28;20214;-45
2022/06/29 11:30:22;;;;;;;4.73;1.63;;;27.70;99.90;;;;;;5093836;28;20246;-44
2022/06/29 11:32:49;;;;;;;2.20;1.07;;;27.70;99.90;;;;;;5093953;28;20173;-46
2022/06/29 11:35:16;;;;;;;6.30;1.47;;;27.70;99.90;;;;;;5093720;28;20258;-42
2022/06/29 11:38:05;;;;;;;3.90;1.10;;;27.80;99.90;;;;;;5093321;28;20186;-39
2022/06/29 11:40:42;;;;;;;5.63;1.20;;;27.90;99.90;;;;;;5093345;28;20202;-40
2022/06/29 11:43:14;;;;;;;1.67;1.20;;;28.00;99.90;;;;;;5093536;28;20154;-41
2022/06/29 11:45:45;;;;;;;2.87;1.30;;;28.10;99.90;;;;;;5093279;28;20703;-40
2022/06/29 11:49:33;;;;;;;7.10;2.13;;;28.10;99.90;;;;;;5093562;28;20179;-40
2022/06/29 11:51:22;;;;;;;4.07;1.40;;;28.20;99.90;;;;;;5096546;28;20198;-40
2022/06/29 11:53:53;;;;;;;2.83;1.73;;;28.30;99.90;;;;;;5096712;28;20530;-42
2022/06/29 11:56:27;;;;;;;2.37;1.20;;;28.30;99.90;;;;;;5096988;28;20167;-43
2022/06/29 11:58:56;;;;;;;2.47;1.35;;;28.30;99.90;;;;;;5096690;28;20186;-39
2022/06/29 12:01:23;;;;;;;1.40;1.03;;;28.30;99.90;;;;;;5096552;28;20652;-40
2022/06/29 12:03:52;;;;;;;1.40;1.17;;;28.40;99.90;;;;;;5096751;28;20252;-40
2022/06/29 12:06:19;;;;;;;1.30;1.15;;;28.50;99.90;;;;;;5096756;28;20174;-42
2022/06/29 12:08:46;;;;;;;3.90;1.10;;;28.70;99.90;;;;;;5096294;28;20242;-40
2022/06/29 12:11:11;;;;;;;1.52;1.00;;;28.80;99.90;;;;;;5097144;28;20272;-39
2022/06/29 12:13:37;;;;;;;1.33;1.00;;;28.90;99.90;;;;;;5096655;28;20202;-39
2022/06/29 12:16:03;;;;;;;3.72;1.00;;;28.90;99.90;;;;;;5096362;28;20541;-41
2022/06/29 12:18:30;;;;;;;1.73;1.23;;;29.10;99.90;;;;;;5096782;28;20178;-42
2022/06/29 12:20:55;;;;;;;2.17;1.10;;;29.20;98.20;;;;;;5096509;28;20179;-42
2022/06/29 12:23:21;;;;;;;1.88;1.10;;;29.10;99.90;;;;;;5096247;28;20232;-42
2022/06/29 12:25:47;;;;;;;2.90;1.35;;;29.10;99.10;;;;;;5096196;28;20610;-40
2022/06/29 12:28:12;;;;;;;1.33;1.00;;;29.30;98.80;;;;;;5096071;28;20187;-41
2022/06/29 12:30:38;;;;;;;1.88;1.17;;;29.50;99.90;;;;;;5095962;28;20282;-40
2022/06/29 12:33:09;;;;;;;1.08;0.98;;;29.60;99.20;;;;;;5096246;28;20258;-42
2022/06/29 12:35:35;;;;;;;2.72;1.35;;;29.80;99.90;;;;;;5094710;28;20206;-39
2022/06/29 12:38:01;;;;;;;1.38;1.02;;;29.90;99.90;;;;;;5095931;28;20714;-41
2022/06/29 12:40:29;;;;;;;3.35;1.13;;;30.00;98.00;;;;;;5095779;28;20282;-41
2022/06/29 12:42:54;;;;;;;7.80;1.75;;;30.10;96.90;;;;;;5096051;28;20183;-40
2022/06/29 12:45:20;;;;;;;4.10;1.40;;;30.10;98.00;;;;;;5094646;28;20183;-40
2022/06/29 12:47:46;;;;;;;2.83;1.15;;;30.20;98.10;;;;;;5096209;28;20178;-41
2022/06/29 12:50:12;;;;;;;1.42;1.10;;;30.30;98.70;;;;;;5095634;28;20577;-40
2022/06/29 12:52:42;;;;;;;1.15;1.05;;;30.30;99.90;;;;;;5096006;28;20200;-40
2022/06/29 12:55:08;;;;;;;1.63;1.17;;;30.40;99.90;;;;;;5095658;28;20202;-40
2022/06/29 12:57:34;;;;;;;4.03;0.98;;;30.50;98.30;;;;;;5095524;28;20626;-40
2022/06/29 13:00:00;;;;;;;2.30;1.02;;;30.60;98.20;;;;;;5094844;28;20229;-38
2022/06/29 13:02:26;;;;;;;1.65;1.00;;;30.70;99.30;;;;;;5095501;28;20182;-41
2022/06/29 13:04:52;;;;;;;2.40;1.10;;;30.90;99.60;;;;;;5095420;28;20179;-41
2022/06/29 13:07:17;;;;;;;1.92;1.10;;;31.00;99.80;;;;;;5095182;28;20555;-40